createdAt,value
2022-10-05T00:00:14.808Z,1014.77
2022-10-05T00:01:14.699Z,1014.78
2022-10-05T00:02:14.537Z,1014.85
2022-10-05T00:03:14.369Z,1014.77
2022-10-05T00:04:14.554Z,1014.84
2022-10-05T00:05:14.395Z,1014.78
2022-10-05T00:06:14.338Z,1014.74
2022-10-05T00:07:14.372Z,1014.71
2022-10-05T00:08:14.319Z,1014.69
2022-10-05T00:09:15.257Z,1014.71
2022-10-05T00:10:14.297Z,1014.65
2022-10-05T00:11:14.287Z,1014.64
2022-10-05T00:12:14.276Z,1014.65
2022-10-05T00:13:14.299Z,1014.67
2022-10-05T00:14:14.251Z,1014.63
2022-10-05T00:15:14.240Z,1014.60
2022-10-05T00:16:14.274Z,1014.64
2022-10-05T00:17:14.217Z,1014.64
2022-10-05T00:18:14.224Z,1014.61
2022-10-05T00:19:14.229Z,1014.62
2022-10-05T00:20:14.222Z,1014.57
2022-10-05T00:21:14.270Z,1014.58
2022-10-05T00:22:14.260Z,1014.55
2022-10-05T00:23:14.149Z,1014.60
2022-10-05T00:24:14.155Z,1014.53
2022-10-05T00:25:14.193Z,1014.54
2022-10-05T00:26:14.132Z,1014.49
2022-10-05T00:27:15.075Z,1014.51
2022-10-05T00:28:14.148Z,1014.42
2022-10-05T00:29:15.035Z,1014.49
2022-10-05T00:30:14.102Z,1014.51
2022-10-05T00:31:14.465Z,1014.51
2022-10-05T00:32:14.187Z,1014.51
2022-10-05T00:33:14.158Z,1014.49
2022-10-05T00:34:14.076Z,1014.51
2022-10-05T00:35:14.297Z,1014.58
2022-10-05T00:36:14.005Z,1014.59
2022-10-05T00:37:14.005Z,1014.57
2022-10-05T00:38:13.981Z,1014.56
2022-10-05T00:39:13.965Z,1014.57
2022-10-05T00:40:13.966Z,1014.56
2022-10-05T00:41:13.970Z,1014.54
2022-10-05T00:42:14.222Z,1014.51
2022-10-05T00:43:13.939Z,1014.58
2022-10-05T00:44:13.909Z,1014.55
2022-10-05T00:45:13.898Z,1014.63
2022-10-05T00:46:13.974Z,1014.61
2022-10-05T00:47:13.885Z,1014.58
2022-10-05T00:48:13.862Z,1014.59
2022-10-05T00:49:13.848Z,1014.64
2022-10-05T00:50:13.853Z,1014.62
2022-10-05T00:51:13.831Z,1014.60
2022-10-05T00:52:13.841Z,1014.62
2022-10-05T00:53:13.820Z,1014.63
2022-10-05T00:54:18.162Z,1014.63
2022-10-05T00:55:13.810Z,1014.61
2022-10-05T00:56:13.785Z,1014.53
2022-10-05T00:57:13.805Z,1014.51
2022-10-05T00:58:13.770Z,1014.55
2022-10-05T00:59:13.734Z,1014.58
2022-10-05T01:00:13.749Z,1014.63
2022-10-05T01:01:13.755Z,1014.63
2022-10-05T01:02:13.723Z,1014.62
2022-10-05T01:03:13.741Z,1014.58
2022-10-05T01:04:13.695Z,1014.56
2022-10-05T01:05:13.676Z,1014.52
2022-10-05T01:06:13.667Z,1014.52
2022-10-05T01:07:13.649Z,1014.50
2022-10-05T01:08:13.659Z,1014.52
2022-10-05T01:09:13.648Z,1014.45
2022-10-05T01:10:13.626Z,1014.50
2022-10-05T01:11:13.634Z,1014.48
2022-10-05T01:12:13.596Z,1014.47
2022-10-05T01:13:13.576Z,1014.48
2022-10-05T01:14:13.576Z,1014.46
2022-10-05T01:15:13.612Z,1014.38
2022-10-05T01:16:13.616Z,1014.43
2022-10-05T01:17:13.540Z,1014.42
2022-10-05T01:18:13.534Z,1014.46
2022-10-05T01:19:13.551Z,1014.48
2022-10-05T01:20:13.548Z,1014.40
2022-10-05T01:21:13.502Z,1014.39
2022-10-05T01:22:13.487Z,1014.38
2022-10-05T01:23:13.467Z,1014.38
2022-10-05T01:24:13.467Z,1014.37
2022-10-05T01:25:13.464Z,1014.38
2022-10-05T01:26:13.491Z,1014.32
2022-10-05T01:27:13.431Z,1014.31
2022-10-05T01:28:13.458Z,1014.31
2022-10-05T01:29:13.412Z,1014.29
2022-10-05T01:30:13.402Z,1014.34
2022-10-05T01:31:13.479Z,1014.32
2022-10-05T01:32:13.413Z,1014.34
2022-10-05T01:33:13.385Z,1014.29
2022-10-05T01:34:13.352Z,1014.24
2022-10-05T01:35:13.373Z,1014.27
2022-10-05T01:36:13.353Z,1014.27
2022-10-05T01:37:13.311Z,1014.28
2022-10-05T01:38:13.329Z,1014.26
2022-10-05T01:39:13.283Z,1014.24
2022-10-05T01:40:13.293Z,1014.25
2022-10-05T01:41:13.282Z,1014.22
2022-10-05T01:42:14.239Z,1014.25
2022-10-05T01:43:13.244Z,1014.28
2022-10-05T01:44:13.290Z,1014.26
2022-10-05T01:45:13.234Z,1014.30
2022-10-05T01:46:13.265Z,1014.25
2022-10-05T01:47:13.220Z,1014.24
2022-10-05T01:48:13.186Z,1014.27
2022-10-05T01:49:13.192Z,1014.22
2022-10-05T01:50:13.200Z,1014.15
2022-10-05T01:51:13.154Z,1014.18
2022-10-05T01:52:13.145Z,1014.19
2022-10-05T01:53:13.139Z,1014.15
2022-10-05T01:54:13.136Z,1014.17
2022-10-05T01:55:13.128Z,1014.17
2022-10-05T01:56:13.143Z,1014.14
2022-10-05T01:57:13.086Z,1014.10
2022-10-05T01:58:13.086Z,1014.04
2022-10-05T01:59:13.098Z,1014.08
2022-10-05T02:00:13.059Z,1014.05
2022-10-05T02:01:13.134Z,1014.08
2022-10-05T02:02:13.119Z,1014.10
2022-10-05T02:03:13.033Z,1014.12
2022-10-05T02:04:24.425Z,1014.10
2022-10-05T02:05:14.040Z,1014.06
2022-10-05T02:06:12.991Z,1014.10
2022-10-05T02:07:12.979Z,1014.05
2022-10-05T02:08:12.982Z,1014.09
2022-10-05T02:09:12.972Z,1014.10
2022-10-05T02:10:12.941Z,1014.07
2022-10-05T02:11:12.986Z,1014.01
2022-10-05T02:12:12.939Z,1014.04
2022-10-05T02:13:12.911Z,1014.05
2022-10-05T02:14:12.895Z,1014.10
2022-10-05T02:15:12.942Z,1014.07
2022-10-05T02:16:12.975Z,1014.08
2022-10-05T02:17:12.872Z,1014.02
2022-10-05T02:18:12.872Z,1014.01
2022-10-05T02:19:12.843Z,1014.02
2022-10-05T02:20:12.834Z,1013.97
2022-10-05T02:21:12.879Z,1014.01
2022-10-05T02:22:12.809Z,1013.99
2022-10-05T02:23:12.802Z,1013.95
2022-10-05T02:24:12.788Z,1014.01
2022-10-05T02:25:12.776Z,1014.03
2022-10-05T02:26:12.766Z,1013.96
2022-10-05T02:27:12.765Z,1013.98
2022-10-05T02:28:12.850Z,1014.03
2022-10-05T02:29:12.735Z,1014.05
2022-10-05T02:30:16.362Z,1014.06
2022-10-05T02:31:12.746Z,1013.98
2022-10-05T02:32:12.721Z,1013.94
2022-10-05T02:33:12.686Z,1013.94
2022-10-05T02:34:12.670Z,1013.95
2022-10-05T02:35:12.663Z,1013.95
2022-10-05T02:36:12.676Z,1013.93
2022-10-05T02:37:12.658Z,1013.92
2022-10-05T02:38:12.637Z,1013.96
2022-10-05T02:39:12.823Z,1013.94
2022-10-05T02:40:12.614Z,1013.91
2022-10-05T02:41:12.589Z,1013.85
2022-10-05T02:42:12.584Z,1013.83
2022-10-05T02:43:12.594Z,1013.75
2022-10-05T02:44:12.557Z,1013.78
2022-10-05T02:45:12.547Z,1013.75
2022-10-05T02:46:12.592Z,1013.73
2022-10-05T02:47:12.520Z,1013.72
2022-10-05T02:48:12.532Z,1013.78
2022-10-05T02:49:12.512Z,1013.75
2022-10-05T02:50:12.488Z,1013.70
2022-10-05T02:51:12.481Z,1013.75
2022-10-05T02:52:12.487Z,1013.76
2022-10-05T02:53:12.453Z,1013.77
2022-10-05T02:54:12.467Z,1013.66
2022-10-05T02:55:12.440Z,1013.65
2022-10-05T02:56:12.422Z,1013.71
2022-10-05T02:57:12.419Z,1013.74
2022-10-05T02:58:12.393Z,1013.69
2022-10-05T02:59:12.412Z,1013.74
2022-10-05T03:00:12.397Z,1013.67
2022-10-05T03:01:12.456Z,1013.67
2022-10-05T03:02:12.456Z,1013.67
2022-10-05T03:03:12.350Z,1013.65
2022-10-05T03:04:12.328Z,1013.64
2022-10-05T03:05:12.334Z,1013.71
2022-10-05T03:06:12.304Z,1013.70
2022-10-05T03:07:12.318Z,1013.68
2022-10-05T03:08:12.320Z,1013.71
2022-10-05T03:09:12.273Z,1013.69
2022-10-05T03:10:12.257Z,1013.72
2022-10-05T03:11:12.267Z,1013.73
2022-10-05T03:12:12.241Z,1013.73
2022-10-05T03:13:12.227Z,1013.74
2022-10-05T03:14:12.228Z,1013.64
2022-10-05T03:15:12.207Z,1013.69
2022-10-05T03:16:12.351Z,1013.65
2022-10-05T03:17:12.187Z,1013.62
2022-10-05T03:18:12.177Z,1013.62
2022-10-05T03:19:12.187Z,1013.60
2022-10-05T03:20:12.150Z,1013.60
2022-10-05T03:21:12.152Z,1013.56
2022-10-05T03:22:12.122Z,1013.54
2022-10-05T03:23:12.140Z,1013.49
2022-10-05T03:24:12.110Z,1013.53
2022-10-05T03:25:12.089Z,1013.53
2022-10-05T03:26:12.083Z,1013.55
2022-10-05T03:27:12.074Z,1013.55
2022-10-05T03:28:12.140Z,1013.52
2022-10-05T03:29:12.050Z,1013.46
2022-10-05T03:30:12.040Z,1013.42
2022-10-05T03:31:12.122Z,1013.44
2022-10-05T03:32:12.010Z,1013.45
2022-10-05T03:33:12.003Z,1013.36
2022-10-05T03:34:12.029Z,1013.36
2022-10-05T03:35:11.994Z,1013.29
2022-10-05T03:36:11.984Z,1013.34
2022-10-05T03:37:11.966Z,1013.35
2022-10-05T03:38:11.943Z,1013.27
2022-10-05T03:39:11.982Z,1013.33
2022-10-05T03:40:11.924Z,1013.30
2022-10-05T03:41:11.912Z,1013.35
2022-10-05T03:42:11.932Z,1013.27
2022-10-05T03:43:11.915Z,1013.26
2022-10-05T03:44:11.907Z,1013.25
2022-10-05T03:45:11.876Z,1013.23
2022-10-05T03:46:11.916Z,1013.27
2022-10-05T03:47:11.845Z,1013.29
2022-10-05T03:48:11.845Z,1013.28
2022-10-05T03:49:11.849Z,1013.23
2022-10-05T03:50:11.836Z,1013.23
2022-10-05T03:51:11.827Z,1013.18
2022-10-05T03:52:11.788Z,1013.28
2022-10-05T03:53:11.779Z,1013.23
2022-10-05T03:54:11.775Z,1013.27
2022-10-05T03:55:11.761Z,1013.25
2022-10-05T03:56:11.767Z,1013.20
2022-10-05T03:57:11.748Z,1013.16
2022-10-05T03:58:11.720Z,1013.11
2022-10-05T03:59:11.711Z,1013.14
2022-10-05T04:00:12.660Z,1013.16
2022-10-05T04:01:11.731Z,1013.16
2022-10-05T04:02:11.730Z,1013.17
2022-10-05T04:03:11.812Z,1013.12
2022-10-05T04:04:11.691Z,1013.16
2022-10-05T04:05:11.650Z,1013.18
2022-10-05T04:06:11.624Z,1013.16
2022-10-05T04:07:11.619Z,1013.15
2022-10-05T04:08:11.602Z,1013.17
2022-10-05T04:09:11.592Z,1013.13
2022-10-05T04:10:11.623Z,1013.14
2022-10-05T04:11:11.581Z,1013.14
2022-10-05T04:12:11.575Z,1013.13
2022-10-05T04:13:11.555Z,1013.18
2022-10-05T04:14:11.554Z,1013.17
2022-10-05T04:15:15.243Z,1013.18
2022-10-05T04:16:12.601Z,1013.16
2022-10-05T04:17:11.535Z,1013.17
2022-10-05T04:18:11.498Z,1013.15
2022-10-05T04:19:11.519Z,1013.17
2022-10-05T04:20:11.467Z,1013.15
2022-10-05T04:21:11.455Z,1013.14
2022-10-05T04:22:12.432Z,1013.14
2022-10-05T04:23:11.443Z,1013.18
2022-10-05T04:24:11.521Z,1013.13
2022-10-05T04:25:11.416Z,1013.13
2022-10-05T04:26:11.398Z,1013.10
2022-10-05T04:27:11.435Z,1013.08
2022-10-05T04:28:11.429Z,1013.12
2022-10-05T04:29:11.387Z,1013.11
2022-10-05T04:30:12.050Z,1013.12
2022-10-05T04:31:11.430Z,1013.09
2022-10-05T04:32:11.338Z,1013.13
2022-10-05T04:33:11.338Z,1013.10
2022-10-05T04:34:11.312Z,1013.12
2022-10-05T04:35:11.304Z,1013.08
2022-10-05T04:36:11.321Z,1013.09
2022-10-05T04:37:11.297Z,1013.14
2022-10-05T04:38:11.299Z,1013.11
2022-10-05T04:39:11.263Z,1013.12
2022-10-05T04:40:11.247Z,1013.15
2022-10-05T04:41:11.237Z,1013.19
2022-10-05T04:42:11.243Z,1013.10
2022-10-05T04:43:11.221Z,1013.17
2022-10-05T04:44:11.200Z,1013.20
2022-10-05T04:45:11.251Z,1013.20
2022-10-05T04:46:11.246Z,1013.17
2022-10-05T04:47:11.269Z,1013.22
2022-10-05T04:48:11.194Z,1013.23
2022-10-05T04:49:11.176Z,1013.19
2022-10-05T04:50:11.134Z,1013.23
2022-10-05T04:51:11.123Z,1013.18
2022-10-05T04:52:11.113Z,1013.19
2022-10-05T04:53:11.119Z,1013.20
2022-10-05T04:54:11.161Z,1013.26
2022-10-05T04:55:11.076Z,1013.22
2022-10-05T04:56:11.065Z,1013.21
2022-10-05T04:57:11.072Z,1013.25
2022-10-05T04:58:11.995Z,1013.25
2022-10-05T04:59:11.039Z,1013.22
2022-10-05T05:00:11.036Z,1013.15
2022-10-05T05:01:11.110Z,1013.21
2022-10-05T05:02:11.044Z,1013.19
2022-10-05T05:03:11.009Z,1013.21
2022-10-05T05:04:11.042Z,1013.22
2022-10-05T05:05:10.988Z,1013.28
2022-10-05T05:06:17.318Z,1013.25
2022-10-05T05:07:11.936Z,1013.21
2022-10-05T05:08:10.936Z,1013.26
2022-10-05T05:09:10.995Z,1013.26
2022-10-05T05:10:10.919Z,1013.30
2022-10-05T05:11:15.821Z,1013.25
2022-10-05T05:12:11.910Z,1013.24
2022-10-05T05:13:10.879Z,1013.31
2022-10-05T05:14:10.858Z,1013.28
2022-10-05T05:15:10.986Z,1013.25
2022-10-05T05:16:11.745Z,1013.23
2022-10-05T05:17:13.177Z,1013.25
2022-10-05T05:18:10.818Z,1013.27
2022-10-05T05:19:10.819Z,1013.18
2022-10-05T05:20:10.799Z,1013.20
2022-10-05T05:21:10.811Z,1013.15
2022-10-05T05:22:10.778Z,1013.20
2022-10-05T05:23:11.720Z,1013.10
2022-10-05T05:24:10.785Z,1013.12
2022-10-05T05:25:10.751Z,1013.23
2022-10-05T05:26:10.725Z,1013.12
2022-10-05T05:27:10.721Z,1013.28
2022-10-05T05:28:10.806Z,1013.19
2022-10-05T05:29:10.703Z,1013.17
2022-10-05T05:30:10.692Z,1013.18
2022-10-05T05:31:10.703Z,1013.14
2022-10-05T05:32:10.661Z,1013.20
2022-10-05T05:33:10.676Z,1013.20
2022-10-05T05:34:10.634Z,1013.16
2022-10-05T05:35:10.629Z,1013.17
2022-10-05T05:36:10.668Z,1013.13
2022-10-05T05:37:10.605Z,1013.12
2022-10-05T05:38:10.593Z,1013.17
2022-10-05T05:39:11.552Z,1013.15
2022-10-05T05:40:10.575Z,1013.13
2022-10-05T05:41:10.564Z,1013.11
2022-10-05T05:42:10.946Z,1013.10
2022-10-05T05:43:10.538Z,1013.11
2022-10-05T05:44:10.578Z,1013.12
2022-10-05T05:45:10.510Z,1013.10
2022-10-05T05:46:10.516Z,1013.10
2022-10-05T05:47:10.884Z,1013.12
2022-10-05T05:48:10.509Z,1013.12
2022-10-05T05:49:10.494Z,1013.13
2022-10-05T05:50:10.475Z,1013.17
2022-10-05T05:51:10.452Z,1013.13
2022-10-05T05:52:10.447Z,1013.05
2022-10-05T05:53:10.457Z,1013.09
2022-10-05T05:54:10.412Z,1013.08
2022-10-05T05:55:10.420Z,1013.11
2022-10-05T05:56:10.391Z,1013.13
2022-10-05T05:57:10.392Z,1013.09
2022-10-05T05:58:10.362Z,1013.03
2022-10-05T05:59:10.383Z,1013.00
2022-10-05T06:00:10.342Z,1012.99
2022-10-05T06:01:25.028Z,1012.95
2022-10-05T06:02:11.415Z,1013.03
2022-10-05T06:03:10.463Z,1012.95
2022-10-05T06:04:10.313Z,1013.05
2022-10-05T06:05:10.292Z,1013.05
2022-10-05T06:06:10.295Z,1013.05
2022-10-05T06:07:10.270Z,1013.01
2022-10-05T06:08:10.283Z,1013.00
2022-10-05T06:09:11.204Z,1013.00
2022-10-05T06:10:10.239Z,1013.02
2022-10-05T06:11:10.224Z,1013.01
2022-10-05T06:12:10.222Z,1013.01
2022-10-05T06:13:10.226Z,1013.05
2022-10-05T06:14:10.205Z,1012.98
2022-10-05T06:15:10.183Z,1013.03
2022-10-05T06:16:10.219Z,1013.05
2022-10-05T06:17:10.156Z,1013.07
2022-10-05T06:18:10.150Z,1013.08
2022-10-05T06:19:10.157Z,1013.11
2022-10-05T06:20:10.468Z,1013.07
2022-10-05T06:21:10.137Z,1013.06
2022-10-05T06:22:10.108Z,1013.08
2022-10-05T06:23:10.120Z,1013.13
2022-10-05T06:24:10.087Z,1013.13
2022-10-05T06:25:10.070Z,1013.11
2022-10-05T06:26:11.016Z,1013.12
2022-10-05T06:27:10.057Z,1013.12
2022-10-05T06:28:10.117Z,1013.14
2022-10-05T06:29:10.039Z,1013.11
2022-10-05T06:30:10.010Z,1013.12
2022-10-05T06:31:10.053Z,1013.16
2022-10-05T06:32:10.128Z,1013.18
2022-10-05T06:33:09.998Z,1013.20
2022-10-05T06:34:11.443Z,1013.15
2022-10-05T06:35:09.963Z,1013.21
2022-10-05T06:36:10.181Z,1013.19
2022-10-05T06:37:09.945Z,1013.19
2022-10-05T06:38:09.931Z,1013.22
2022-10-05T06:39:09.922Z,1013.19
2022-10-05T06:40:09.905Z,1013.18
2022-10-05T06:41:09.952Z,1013.22
2022-10-05T06:42:09.947Z,1013.22
2022-10-05T06:43:09.874Z,1013.17
2022-10-05T06:44:09.873Z,1013.19
2022-10-05T06:45:09.845Z,1013.23
2022-10-05T06:46:09.900Z,1013.16
2022-10-05T06:47:09.850Z,1013.14
2022-10-05T06:48:09.815Z,1013.12
2022-10-05T06:49:09.801Z,1013.17
2022-10-05T06:50:10.203Z,1013.19
2022-10-05T06:51:09.797Z,1013.16
2022-10-05T06:52:10.725Z,1013.17
2022-10-05T06:53:09.765Z,1013.11
2022-10-05T06:54:09.775Z,1013.15
2022-10-05T06:55:14.054Z,1013.16
2022-10-05T06:56:09.767Z,1013.14
2022-10-05T06:57:09.729Z,1013.12
2022-10-05T06:58:09.704Z,1013.17
2022-10-05T06:59:09.691Z,1013.20
2022-10-05T07:00:09.743Z,1013.23
2022-10-05T07:01:10.672Z,1013.22
2022-10-05T07:02:09.767Z,1013.19
2022-10-05T07:03:10.608Z,1013.17
2022-10-05T07:04:09.641Z,1013.22
2022-10-05T07:05:09.624Z,1013.21
2022-10-05T07:06:09.649Z,1013.21
2022-10-05T07:07:09.615Z,1013.16
2022-10-05T07:08:11.543Z,1013.23
2022-10-05T07:09:09.585Z,1013.23
2022-10-05T07:10:09.606Z,1013.17
2022-10-05T07:11:09.563Z,1013.19
2022-10-05T07:12:09.580Z,1013.24
2022-10-05T07:13:09.526Z,1013.19
2022-10-05T07:14:09.536Z,1013.22
2022-10-05T07:15:09.514Z,1013.17
2022-10-05T07:16:09.520Z,1013.17
2022-10-05T07:17:09.486Z,1013.19
2022-10-05T07:18:10.456Z,1013.24
2022-10-05T07:19:10.426Z,1013.20
2022-10-05T07:20:09.686Z,1013.16
2022-10-05T07:21:10.434Z,1013.18
2022-10-05T07:22:10.885Z,1013.16
2022-10-05T07:23:10.875Z,1013.14
2022-10-05T07:24:11.108Z,1013.12
2022-10-05T07:25:09.438Z,1013.16
2022-10-05T07:26:10.846Z,1013.12
2022-10-05T07:27:10.165Z,1013.15
2022-10-05T07:28:09.417Z,1013.17
2022-10-05T07:29:09.408Z,1013.18
2022-10-05T07:30:09.381Z,1013.08
2022-10-05T07:31:09.383Z,1013.13
2022-10-05T07:32:09.352Z,1013.12
2022-10-05T07:33:10.249Z,1013.17
2022-10-05T07:34:09.344Z,1013.15
2022-10-05T07:35:10.735Z,1013.10
2022-10-05T07:36:09.392Z,1013.09
2022-10-05T07:37:09.268Z,1013.15
2022-10-05T07:38:09.346Z,1013.14
2022-10-05T07:39:09.240Z,1013.17
2022-10-05T07:40:09.360Z,1013.16
2022-10-05T07:41:09.412Z,1013.16
2022-10-05T07:42:09.213Z,1013.11
2022-10-05T07:43:09.223Z,1013.19
2022-10-05T07:44:12.841Z,1013.13
2022-10-05T07:45:09.174Z,1013.18
2022-10-05T07:46:09.199Z,1013.12
2022-10-05T07:47:09.142Z,1013.16
2022-10-05T07:48:09.507Z,1013.12
2022-10-05T07:49:09.698Z,1013.09
2022-10-05T07:50:09.153Z,1013.15
2022-10-05T07:51:09.117Z,1013.20
2022-10-05T07:52:09.114Z,1013.15
2022-10-05T07:53:09.104Z,1013.12
2022-10-05T07:54:10.756Z,1013.13
2022-10-05T07:55:09.298Z,1013.11
2022-10-05T07:56:09.057Z,1013.12
2022-10-05T07:57:10.007Z,1013.06
2022-10-05T07:58:09.844Z,1013.11
2022-10-05T07:59:09.018Z,1013.15
2022-10-05T08:00:09.113Z,1013.13
2022-10-05T08:01:09.494Z,1013.19
2022-10-05T08:02:09.110Z,1013.14
2022-10-05T08:03:10.128Z,1013.17
2022-10-05T08:04:09.116Z,1013.15
2022-10-05T08:05:09.257Z,1013.17
2022-10-05T08:06:09.024Z,1013.18
2022-10-05T08:07:10.428Z,1013.17
2022-10-05T08:08:10.986Z,1013.19
2022-10-05T08:09:08.954Z,1013.23
2022-10-05T08:10:08.890Z,1013.22
2022-10-05T08:11:08.966Z,1013.21
2022-10-05T08:12:08.955Z,1013.18
2022-10-05T08:13:08.902Z,1013.18
2022-10-05T08:14:10.326Z,1013.15
2022-10-05T08:15:09.600Z,1013.20
2022-10-05T08:16:10.349Z,1013.22
2022-10-05T08:17:08.808Z,1013.13
2022-10-05T08:18:08.799Z,1013.12
2022-10-05T08:19:08.790Z,1013.15
2022-10-05T08:20:08.808Z,1013.12
2022-10-05T08:21:09.041Z,1013.18
2022-10-05T08:22:08.759Z,1013.09
2022-10-05T08:23:08.861Z,1013.16
2022-10-05T08:24:08.749Z,1013.16
2022-10-05T08:25:08.723Z,1013.11
2022-10-05T08:26:09.538Z,1013.17
2022-10-05T08:27:08.716Z,1013.19
2022-10-05T08:28:08.714Z,1013.18
2022-10-05T08:29:13.488Z,1013.23
2022-10-05T08:30:10.394Z,1013.16
2022-10-05T08:31:08.700Z,1013.20
2022-10-05T08:32:08.660Z,1013.15
2022-10-05T08:33:09.458Z,1013.12
2022-10-05T08:34:09.043Z,1013.08
2022-10-05T08:35:09.110Z,1013.09
2022-10-05T08:36:09.077Z,1013.11
2022-10-05T08:37:10.061Z,1013.01
2022-10-05T08:38:08.600Z,1013.12
2022-10-05T08:39:08.770Z,1013.09
2022-10-05T08:40:08.559Z,1013.11
2022-10-05T08:41:08.543Z,1013.08
2022-10-05T08:42:08.560Z,1013.10
2022-10-05T08:43:09.965Z,1013.10
2022-10-05T08:44:09.304Z,1013.06
2022-10-05T08:45:08.535Z,1013.12
2022-10-05T08:46:09.996Z,1013.15
2022-10-05T08:47:08.527Z,1013.11
2022-10-05T08:48:08.466Z,1013.11
2022-10-05T08:49:12.362Z,1013.10
2022-10-05T08:50:08.430Z,1013.05
2022-10-05T08:51:08.482Z,1013.09
2022-10-05T08:52:08.464Z,1013.12
2022-10-05T08:53:08.416Z,1013.08
2022-10-05T08:54:08.402Z,1013.06
2022-10-05T08:55:08.448Z,1013.09
2022-10-05T08:56:08.370Z,1013.11
2022-10-05T08:57:08.372Z,1013.04
2022-10-05T08:58:08.453Z,1013.06
2022-10-05T08:59:08.343Z,1013.11
2022-10-05T09:00:08.342Z,1013.08
2022-10-05T09:01:08.376Z,1013.04
2022-10-05T09:02:08.380Z,1013.08
2022-10-05T09:03:08.318Z,1013.03
2022-10-05T09:04:08.278Z,1013.02
2022-10-05T09:05:09.713Z,1012.99
2022-10-05T09:06:08.257Z,1013.00
2022-10-05T09:07:08.248Z,1013.02
2022-10-05T09:08:08.254Z,1013.03
2022-10-05T09:09:08.216Z,1012.96
2022-10-05T09:10:08.480Z,1012.94
2022-10-05T09:11:08.283Z,1012.89
2022-10-05T09:12:09.638Z,1012.92
2022-10-05T09:13:09.638Z,1012.91
2022-10-05T09:14:08.174Z,1012.90
2022-10-05T09:15:24.861Z,1012.92
2022-10-05T09:16:09.246Z,1012.92
2022-10-05T09:17:08.120Z,1012.92
2022-10-05T09:18:09.569Z,1012.96
2022-10-05T09:19:08.291Z,1012.92
2022-10-05T09:20:08.259Z,1012.91
2022-10-05T09:21:08.535Z,1012.86
2022-10-05T09:22:09.072Z,1012.93
2022-10-05T09:23:08.361Z,1012.90
2022-10-05T09:24:09.522Z,1012.90
2022-10-05T09:25:08.297Z,1012.92
2022-10-05T09:26:08.055Z,1012.88
2022-10-05T09:27:08.813Z,1012.75
2022-10-05T09:28:08.084Z,1012.82
2022-10-05T09:29:08.174Z,1012.90
2022-10-05T09:30:07.993Z,1012.87
2022-10-05T09:31:08.066Z,1012.94
2022-10-05T09:32:10.694Z,1012.85
2022-10-05T09:33:08.246Z,1012.86
2022-10-05T09:34:09.394Z,1012.83
2022-10-05T09:35:08.278Z,1012.82
2022-10-05T09:36:08.876Z,1012.80
2022-10-05T09:37:07.905Z,1012.81
2022-10-05T09:38:08.736Z,1012.80
2022-10-05T09:39:08.748Z,1012.84
2022-10-05T09:40:07.920Z,1012.76
2022-10-05T09:41:07.856Z,1012.71
2022-10-05T09:42:07.949Z,1012.71
2022-10-05T09:43:07.848Z,1012.74
2022-10-05T09:44:07.834Z,1012.70
2022-10-05T09:45:07.843Z,1012.68
2022-10-05T09:46:07.974Z,1012.67
2022-10-05T09:47:08.745Z,1012.66
2022-10-05T09:48:07.781Z,1012.73
2022-10-05T09:49:07.776Z,1012.70
2022-10-05T09:50:07.757Z,1012.73
2022-10-05T09:51:07.807Z,1012.69
2022-10-05T09:52:08.542Z,1012.67
2022-10-05T09:53:07.727Z,1012.68
2022-10-05T09:54:07.718Z,1012.71
2022-10-05T09:55:07.740Z,1012.72
2022-10-05T09:56:07.702Z,1012.68
2022-10-05T09:57:07.684Z,1012.63
2022-10-05T09:58:07.667Z,1012.66
2022-10-05T09:59:07.677Z,1012.68
2022-10-05T10:01:15.833Z,1012.61
2022-10-05T10:02:08.732Z,1012.66
2022-10-05T10:03:07.760Z,1012.61
2022-10-05T10:04:07.645Z,1012.61
2022-10-05T10:05:07.592Z,1012.64
2022-10-05T10:06:07.597Z,1012.63
2022-10-05T10:07:07.569Z,1012.61
2022-10-05T10:08:07.583Z,1012.61
2022-10-05T10:09:07.536Z,1012.61
2022-10-05T10:10:07.550Z,1012.59
2022-10-05T10:11:07.524Z,1012.60
2022-10-05T10:12:07.508Z,1012.53
2022-10-05T10:13:08.494Z,1012.55
2022-10-05T10:14:07.523Z,1012.51
2022-10-05T10:15:07.484Z,1012.55
2022-10-05T10:16:07.496Z,1012.51
2022-10-05T10:17:08.400Z,1012.56
2022-10-05T10:18:07.450Z,1012.55
2022-10-05T10:19:07.458Z,1012.54
2022-10-05T10:20:07.517Z,1012.47
2022-10-05T10:21:08.379Z,1012.48
2022-10-05T10:22:07.488Z,1012.50
2022-10-05T10:23:07.393Z,1012.51
2022-10-05T10:24:07.498Z,1012.50
2022-10-05T10:25:07.374Z,1012.52
2022-10-05T10:26:07.357Z,1012.52
2022-10-05T10:27:07.918Z,1012.43
2022-10-05T10:28:07.381Z,1012.48
2022-10-05T10:29:08.780Z,1012.45
2022-10-05T10:30:07.341Z,1012.48
2022-10-05T10:31:07.319Z,1012.51
2022-10-05T10:32:07.553Z,1012.48
2022-10-05T10:33:07.489Z,1012.45
2022-10-05T10:34:07.279Z,1012.47
2022-10-05T10:35:07.265Z,1012.47
2022-10-05T10:36:07.385Z,1012.61
2022-10-05T10:37:07.232Z,1012.54
2022-10-05T10:38:07.379Z,1012.47
2022-10-05T10:39:07.234Z,1012.52
2022-10-05T10:40:07.377Z,1012.49
2022-10-05T10:41:08.012Z,1012.51
2022-10-05T10:42:07.195Z,1012.52
2022-10-05T10:43:07.332Z,1012.56
2022-10-05T10:44:07.164Z,1012.49
2022-10-05T10:45:07.174Z,1012.49
2022-10-05T10:46:07.251Z,1012.52
2022-10-05T10:47:07.367Z,1012.48
2022-10-05T10:48:07.118Z,1012.43
2022-10-05T10:49:07.128Z,1012.47
2022-10-05T10:50:07.116Z,1012.45
2022-10-05T10:51:07.175Z,1012.41
2022-10-05T10:52:07.057Z,1012.34
2022-10-05T10:53:07.051Z,1012.43
2022-10-05T10:54:07.086Z,1012.29
2022-10-05T10:55:07.041Z,1012.27
2022-10-05T10:56:07.011Z,1012.31
2022-10-05T10:57:07.021Z,1012.26
2022-10-05T10:58:07.020Z,1012.36
2022-10-05T10:59:07.023Z,1012.34
2022-10-05T11:00:07.061Z,1012.24
2022-10-05T11:01:06.969Z,1012.29
2022-10-05T11:02:07.023Z,1012.25
2022-10-05T11:03:06.975Z,1012.23
2022-10-05T11:04:07.072Z,1012.22
2022-10-05T11:05:06.919Z,1012.21
2022-10-05T11:06:06.934Z,1012.15
2022-10-05T11:07:06.900Z,1012.19
2022-10-05T11:08:06.886Z,1012.26
2022-10-05T11:09:06.884Z,1012.22
2022-10-05T11:10:06.861Z,1012.15
2022-10-05T11:11:06.898Z,1012.17
2022-10-05T11:12:06.843Z,1012.05
2022-10-05T11:13:06.994Z,1012.12
2022-10-05T11:14:08.268Z,1012.03
2022-10-05T11:15:07.788Z,1012.04
2022-10-05T11:17:06.828Z,1012.01
2022-10-05T11:18:06.768Z,1011.94
2022-10-05T11:19:06.755Z,1011.98
2022-10-05T11:20:06.821Z,1011.90
2022-10-05T11:21:06.889Z,1011.90
2022-10-05T11:22:06.719Z,1011.97
2022-10-05T11:23:06.748Z,1011.84
2022-10-05T11:24:06.697Z,1011.83
2022-10-05T11:25:06.688Z,1011.80
2022-10-05T11:26:06.693Z,1011.77
2022-10-05T11:27:06.679Z,1011.77
2022-10-05T11:28:06.677Z,1011.75
2022-10-05T11:29:06.681Z,1011.70
2022-10-05T11:30:06.723Z,1011.69
2022-10-05T11:31:06.671Z,1011.66
2022-10-05T11:32:06.640Z,1011.70
2022-10-05T11:33:06.619Z,1011.69
2022-10-05T11:34:06.634Z,1011.59
2022-10-05T11:35:06.603Z,1011.64
2022-10-05T11:36:06.562Z,1011.57
2022-10-05T11:37:06.564Z,1011.62
2022-10-05T11:38:06.541Z,1011.56
2022-10-05T11:39:06.530Z,1011.60
2022-10-05T11:40:06.542Z,1011.56
2022-10-05T11:41:06.510Z,1011.52
2022-10-05T11:42:06.495Z,1011.49
2022-10-05T11:43:06.573Z,1011.47
2022-10-05T11:44:07.203Z,1011.44
2022-10-05T11:45:06.584Z,1011.37
2022-10-05T11:46:07.528Z,1011.46
2022-10-05T11:47:06.451Z,1011.38
2022-10-05T11:48:06.541Z,1011.47
2022-10-05T11:49:06.450Z,1011.38
2022-10-05T11:50:06.453Z,1011.27
2022-10-05T11:51:06.413Z,1011.31
2022-10-05T11:52:06.381Z,1011.37
2022-10-05T11:53:06.416Z,1011.38
2022-10-05T11:54:06.366Z,1011.26
2022-10-05T11:55:11.105Z,1011.28
2022-10-05T11:56:07.346Z,1011.20
2022-10-05T11:57:06.451Z,1011.17
2022-10-05T11:58:06.349Z,1011.09
2022-10-05T11:59:06.404Z,1011.17
2022-10-05T12:00:06.414Z,1011.08
2022-10-05T12:01:06.307Z,1011.15
2022-10-05T12:02:06.307Z,1011.11
2022-10-05T12:03:06.388Z,1011.08
2022-10-05T12:04:06.340Z,1011.14
2022-10-05T12:05:06.241Z,1011.16
2022-10-05T12:06:06.563Z,1011.20
2022-10-05T12:07:06.223Z,1011.26